KAVL/AVL METAR and TAF weather

Enter ICAO airport designator
Station Type Date Time Source
KAVL METAR 2022/06/28 07:54 UTC NOAA

KAVL 280754Z AUTO 01005KT 10SM BKN075 19/13 A3019 RMK AO2 SLP195 T01890128


Station Type Date Time Source
KAVL Decoded METAR 2022/06/28 07:54 UTC NOAA

ASHEVILLE REGIONAL AIRPORT, NC, United States (KAVL) 35-26N 82-32W 670M
Jun 28, 2022 - 03:54 AM EDT / 2022.06.28 0754 UTC
Wind: from the N (010 degrees) at 6 MPH (5 KT):0
Visibility: 10 mile(s):0
Sky conditions: mostly cloudy
Temperature: 66.0 F (18.9 C)
Dew Point: 55.0 F (12.8 C)
Relative Humidity: 67%
Pressure (altimeter): 30.19 in. Hg (1022 hPa)
ob: KAVL 280754Z AUTO 01005KT 10SM BKN075 19/13 A3019 RMK AO2 SLP195 T01890128
cycle: 8

Station Type Date Time Source
KAVL TAF 2022/06/28 06:46 UTC NOAA

TAF KAVL 280543Z 2806/2906 35005KT P6SM FEW060
FM281200 35003KT P6SM BKN090
FM281500 06006KT P6SM BKN190
FM282000 16005KT P6SM BKN110
FM290200 17002KT P6SM BKN110

Example: see airport list